Flight Track Log - Related Links

Times and Time Zones

All times are in EDT time to prevent confusion due to time zone crossing. See the AAL1890 flight status page for this flight to view local times or setup timezone preferences in your user account.

Time Position Orientation Groundspeed Altitude Reporting Facility
EDT Latitude Longitude Course Direction KTS MPH feet Rate Location/Type
Fri 10:12:21 AM 36.0756 -115.1658 84° East 164 189 2,900  Level Los Angeles Center
Fri 10:13:28 AM 36.0731 -115.2436 268° West 222 255 4,900 1,914 Climbing Los Angeles Center
Fri 10:14:00 AM 35.8384 -115.1861 103° East  Level FlightAware Approximate
Fri 10:14:17 AM 36.0289 -115.2769 211° Southwest 266 306 6,600  Level Los Angeles Center
Fri 10:14:35 AM 35.9967 -115.2900 198° South 288 331 7,000 484 Climbing Los Angeles Center
Fri 10:15:00 AM 35.8184 -115.0481 84° East  Level FlightAware Approximate
Fri 10:15:19 AM 35.9494 -115.2906 181° South 284 327 7,100  Level Los Angeles Center
Fri 10:15:42 AM 35.9114 -115.2756 162° South 281 323 8,500 2,852 Climbing Los Angeles Center
Fri 10:16:00 AM 35.8311 -114.9079 84° East  Level FlightAware Approximate
Fri 10:16:20 AM 35.8911 -115.2350 122° Southeast 281 323 10,000  Level Los Angeles Center
Fri 10:16:37 AM 35.8897 -115.1950 92° East 279 321 11,000 1,645 Climbing Los Angeles Center
Fri 10:17:00 AM 35.8416 -114.7675 84° East  Level FlightAware Approximate
Fri 10:17:22 AM 35.8914 -115.1336 88° East 294 338 11,700  Level Los Angeles Center
Fri 10:18:24 AM 35.8969 -114.9889 87° East 341 392 14,800 2,710 Climbing Los Angeles Center
Fri 10:19:26 AM 35.8994 -114.8611 89° East 364 419 17,300 2,371 Climbing Los Angeles Center
Fri 10:20:28 AM 35.9036 -114.7278 88° East 381 438 19,700 2,244 Climbing Los Angeles Center
Fri 10:21:29 AM 35.9069 -114.5894 88° East 397 457 21,900 2,049 Climbing Los Angeles Center
Fri 10:22:31 AM 35.9047 -114.4472 91° East 409 471 23,900 1,790 Climbing Los Angeles Center
Fri 10:23:33 AM 35.8908 -114.2992 97° East 428 493 25,600 1,839 Climbing Los Angeles Center
Fri 10:24:35 AM 35.8792 -114.1158 94° East 442 509 27,700 1,984 Climbing Los Angeles Center
Fri 10:25:37 AM 35.8697 -113.9608 94° East 451 519 29,700 2,098 Climbing Los Angeles Center
Fri 10:26:38 AM 35.8589 -113.8083 95° East 450 518 32,000 2,000 Climbing Los Angeles Center
Fri 10:27:40 AM 35.8475 -113.6592 95° East 442 509 33,800 1,645 Climbing Los Angeles Center
Fri 10:28:42 AM 35.8344 -113.5036 96° East 441 507 35,400 1,403 Climbing Los Angeles Center
Fri 10:29:44 AM 35.8225 -113.3536 96° East 440 506 36,700 1,210 Climbing Los Angeles Center
Fri 10:30:46 AM 35.8111 -113.2050 95° East 438 504 37,900 919 Climbing Los Angeles Center
Fri 10:31:48 AM 35.7983 -113.0556 96° East 437 503 38,600 537 Climbing Los Angeles Center
Fri 10:32:49 AM 35.7858 -112.9025 96° East 444 511 39,000 195 Climbing Los Angeles Center
Fri 10:33:51 AM 35.7728 -112.7467 96° East 453 521 39,000  Level Los Angeles Center
Fri 10:34:53 AM 35.7564 -112.5617 96° East 452 520 39,000  Level Los Angeles Center
Fri 10:35:55 AM 35.7431 -112.4100 96° East 447 514 39,000  Level Los Angeles Center
Fri 10:36:57 AM 35.7289 -112.2600 97° East 443 510 39,000  Level Los Angeles Center
Fri 10:37:59 AM 35.7156 -112.1092 96° East 443 510 39,000  Level Los Angeles Center
Fri 10:39:00 AM 35.7028 -111.9581 96° East 445 512 39,000  Level Los Angeles Center
Fri 10:40:02 AM 35.6867 -111.8044 97° East 452 520 39,000  Level Los Angeles Center
Fri 10:41:08 AM 35.6683 -111.6197 97° East 453 521 39,000  Level Albuquerque Center
Fri 10:42:10 AM 35.6533 -111.4664 97° East 454 522 39,000  Level Albuquerque Center
Fri 10:43:12 AM 35.6367 -111.2922 97° East 456 525 39,000  Level Albuquerque Center
Fri 10:44:14 AM 35.6217 -111.1433 97° East 458 527 39,000  Level Albuquerque Center
Fri 10:45:16 AM 35.6044 -110.9717 97° East 456 525 39,000  Level Albuquerque Center
Fri 10:46:18 AM 35.5883 -110.8219 97° East 459 528 39,000  Level Albuquerque Center
Fri 10:47:20 AM 35.5717 -110.6506 97° East 456 525 39,000  Level Albuquerque Center
Fri 10:48:22 AM 35.5558 -110.5056 98° East 453 521 39,000  Level Albuquerque Center
Fri 10:49:24 AM 35.5372 -110.3358 98° East 450 518 39,000  Level Albuquerque Center
Fri 10:50:26 AM 35.5225 -110.1914 97° East 447 514 39,000  Level Albuquerque Center
Fri 10:51:28 AM 35.5072 -110.0464 97° East 448 516 39,000  Level Albuquerque Center
Fri 10:52:30 AM 35.4897 -109.8792 97° East 445 512 39,000  Level Albuquerque Center
Fri 10:53:32 AM 35.4736 -109.7339 98° East 447 514 39,000  Level Albuquerque Center
Fri 10:54:34 AM 35.4550 -109.5636 98° East 451 519 39,000  Level Albuquerque Center
Fri 10:55:36 AM 35.4386 -109.4167 98° East 454 522 39,000  Level Albuquerque Center
Fri 10:56:38 AM 35.4183 -109.2464 98° East 455 524 39,000  Level Albuquerque Center
Fri 10:57:40 AM 35.4019 -109.0997 98° East 455 524 39,000  Level Albuquerque Center
Fri 10:58:42 AM 35.3817 -108.9292 98° East 456 525 39,000  Level Albuquerque Center
Fri 10:59:44 AM 35.3642 -108.7836 98° East 454 522 39,000  Level Albuquerque Center
Fri 11:00:46 AM 35.3444 -108.6133 98° East 454 522 39,000  Level Albuquerque Center
Fri 11:01:48 AM 35.3269 -108.4664 98° East 455 524 39,000  Level Albuquerque Center
Fri 11:02:50 AM 35.3064 -108.2950 98° East 457 526 39,000  Level Albuquerque Center
Fri 11:03:52 AM 35.2872 -108.1464 99° East 460 529 39,000  Level Albuquerque Center
Fri 11:04:54 AM 35.2661 -107.9739 98° East 461 531 39,000  Level Albuquerque Center
Fri 11:05:56 AM 35.2467 -107.8261 99° East 461 531 39,000  Level Albuquerque Center
Fri 11:06:58 AM 35.2242 -107.6533 99° East 461 531 39,000  Level Albuquerque Center
Fri 11:08:00 AM 35.2044 -107.5058 99° East 460 529 39,000  Level Albuquerque Center
Fri 11:09:02 AM 35.1836 -107.3572 100° East 463 533 39,000  Level Albuquerque Center
Fri 11:10:04 AM 35.1603 -107.1833 99° East 464 534 39,000  Level Albuquerque Center
Fri 11:11:06 AM 35.1375 -107.0092 99° East 465 535 39,000  Level Albuquerque Center
Fri 11:12:08 AM 35.1169 -106.8603 100° East 465 535 39,000  Level Albuquerque Center
Fri 11:13:10 AM 35.0908 -106.6900 101° East 459 528 39,000  Level Albuquerque Center
Fri 11:14:12 AM 35.0719 -106.5356 98° East 467 537 39,000  Level Albuquerque Center
Fri 11:15:14 AM 35.0489 -106.3758 100° East 476 548 39,000  Level Albuquerque Center
Fri 11:16:16 AM 35.0272 -106.2222 100° East 465 535 39,000  Level Albuquerque Center
Fri 11:17:18 AM 35.0044 -106.0667 100° East 466 536 39,000  Level Albuquerque Center
Fri 11:18:21 AM 34.9817 -105.9094 100° East 470 541 39,000  Level Albuquerque Center
Fri 11:19:23 AM 34.9536 -105.7206 100° East 471 542 39,000  Level Albuquerque Center
Fri 11:20:25 AM 34.9294 -105.5614 100° East 473 544 39,000  Level Albuquerque Center
Fri 11:21:27 AM 34.9067 -105.4031 100° East 473 544 39,000  Level Albuquerque Center
Fri 11:22:29 AM 34.8822 -105.2442 101° East 474 545 39,000  Level Albuquerque Center
Fri 11:23:31 AM 34.8581 -105.0850 100° East 475 547 39,000  Level Albuquerque Center
Fri 11:24:33 AM 34.8344 -104.9264 100° East 475 547 39,000  Level Albuquerque Center
Fri 11:25:35 AM 34.8100 -104.7681 101° East 475 547 39,000  Level Albuquerque Center
Fri 11:26:37 AM 34.7819 -104.5847 101° East 473 544 39,000  Level Albuquerque Center
Fri 11:27:39 AM 34.7575 -104.4311 101° East 466 536 39,000  Level Albuquerque Center
Fri 11:28:41 AM 34.7322 -104.2733 101° East 470 541 39,000  Level Albuquerque Center
Fri 11:29:43 AM 34.7083 -104.1164 100° East 472 543 39,000  Level Albuquerque Center
Fri 11:30:45 AM 34.6825 -103.9586 101° East 474 545 39,000  Level Albuquerque Center
Fri 11:31:47 AM 34.6519 -103.7756 101° East 473 544 39,000  Level Albuquerque Center
Fri 11:32:49 AM 34.6256 -103.6161 101° East 478 550 39,000  Level Albuquerque Center
Fri 11:33:51 AM 34.6006 -103.4569 101° East 477 549 39,000  Level Albuquerque Center
Fri 11:34:53 AM 34.5739 -103.2983 101° East 478 550 39,000  Level Albuquerque Center
Fri 11:35:55 AM 34.5458 -103.1381 102° East 481 554 39,000  Level Albuquerque Center
Fri 11:36:57 AM 34.5192 -102.9767 101° East 483 556 39,000  Level Albuquerque Center
Fri 11:37:59 AM 34.4939 -102.8131 101° East 489 563 39,000  Level Albuquerque Center
Fri 11:39:01 AM 34.4725 -102.6189 98° East 491 565 39,000  Level Albuquerque Center
Fri 11:40:03 AM 34.4542 -102.4539 98° East 494 568 39,000  Level Albuquerque Center
Fri 11:41:05 AM 34.4375 -102.2906 97° East 494 568 39,000  Level Albuquerque Center
Fri 11:42:07 AM 34.4211 -102.1261 97° East 495 570 39,000  Level Albuquerque Center
Fri 11:43:09 AM 34.4031 -101.9603 97° East 497 572 39,000  Level Albuquerque Center
Fri 11:44:11 AM 34.3847 -101.7964 98° East 497 572 39,000  Level Albuquerque Center
Fri 11:45:13 AM 34.3642 -101.5997 97° East 487 560 39,000  Level Fort Worth Center
Fri 11:46:13 AM 34.3444 -101.4353 98° East 496 571 39,000  Level Fort Worth Center
Fri 11:47:13 AM 34.3267 -101.2736 98° East 496 571 39,000  Level Fort Worth Center
Fri 11:48:13 AM 34.3086 -101.1067 97° East 491 565 39,000  Level Fort Worth Center
Fri 11:49:13 AM 34.2883 -100.9450 99° East 486 559 39,000  Level Fort Worth Center
Fri 11:50:13 AM 34.2678 -100.7808 99° East 486 559 39,000  Level Fort Worth Center
Fri 11:51:13 AM 34.2492 -100.6194 98° East 486 559 39,000  Level Fort Worth Center
Fri 11:52:13 AM 34.2319 -100.4681 98° East 474 545 39,000  Level Fort Worth Center
Fri 11:53:13 AM 34.2122 -100.3292 100° East 464 534 39,000  Level Fort Worth Center
Fri 11:54:13 AM 34.1783 -100.1725 105° East 472 543 39,000  Level Fort Worth Center
Fri 11:55:13 AM 34.1378 -100.0156 107° East 478 550 39,000 -50 Level Fort Worth Center
Fri 11:56:13 AM 34.0972 -99.8564 107° East 484 557 38,900 -650 Descending Fort Worth Center
Fri 11:57:13 AM 34.0564 -99.7047 108° East 489 563 37,700 -1,350 Descending Fort Worth Center
Fri 11:58:13 AM 34.0153 -99.5483 108° East 484 557 36,200 -1,300 Descending Fort Worth Center
Fri 11:59:13 AM 33.9719 -99.3894 108° East 484 557 35,100 -1,100 Descending Fort Worth Center
Fri 12:00:13 PM 33.9283 -99.2383 109° East 484 557 34,000 -1,400 Descending Fort Worth Center
Fri 12:01:13 PM 33.8889 -99.0850 107° East 484 557 32,300 -1,700 Descending Fort Worth Center
Fri 12:02:13 PM 33.8469 -98.9314 108° East 484 557 30,600 -1,550 Descending Fort Worth Center
Fri 12:03:13 PM 33.8008 -98.7683 109° East 484 557 29,200 -1,050 Descending Fort Worth Center
Fri 12:04:13 PM 33.7625 -98.6353 109° East 473 544 28,500 -850 Descending Fort Worth Center
Fri 12:05:13 PM 33.7200 -98.4797 108° East 455 524 27,500 -1,100 Descending Fort Worth Center
Fri 12:06:13 PM 33.6794 -98.3444 110° East 445 512 26,300 -1,450 Descending Fort Worth Center
Fri 12:07:13 PM 33.6239 -98.2142 117° Southeast 434 499 24,600 -2,000 Descending Fort Worth Center
Fri 12:08:13 PM 33.5744 -98.0967 117° Southeast 434 499 22,300 -2,600 Descending Fort Worth Center
Fri 12:09:13 PM 33.5189 -97.9617 116° Southeast 414 476 19,400 -2,550 Descending Fort Worth Center
Fri 12:10:13 PM 33.4733 -97.8567 117° Southeast 398 458 17,200 -2,250 Descending Fort Worth Center
Fri 12:11:13 PM 33.4217 -97.7369 117° Southeast 378 435 14,900 -2,200 Descending Fort Worth Center
Fri 12:12:13 PM 33.3781 -97.6397 118° Southeast 371 427 12,800 -1,900 Descending Fort Worth Center
Fri 12:13:13 PM 33.3092 -97.5550 134° Southeast 360 414 11,100 -900 Descending Fort Worth Center
Fri 12:14:13 PM 33.2342 -97.4656 135° Southeast 349 402 11,000  Descending Fort Worth Center
Fri 12:15:13 PM 33.1717 -97.3936 136° Southeast 349 402 11,100  Climbing Fort Worth Center
Fri 12:16:13 PM 33.0964 -97.3069 136° Southeast 343 395 11,000 -50 Descending Fort Worth Center
Fri 12:17:13 PM 33.0378 -97.2375 135° Southeast 330 380 11,000  Level Fort Worth Center
Fri 12:18:13 PM 32.9750 -97.1758 141° Southeast 284 327 11,000 -550 Level Fort Worth Center
Fri 12:19:13 PM 32.9144 -97.1733 178° South 246 283 9,900 -1,450 Descending Fort Worth Center
Fri 12:20:13 PM 32.8414 -97.1711 179° South 241 277 8,100 -1,850 Descending Fort Worth Center
Fri 12:21:13 PM 32.7747 -97.1714 180° South 241 277 6,200 -1,850 Descending Fort Worth Center
Fri 12:22:13 PM 32.7100 -97.1642 175° South 230 265 4,400 -1,550 Descending Fort Worth Center
Fri 12:23:13 PM 32.6514 -97.1419 162° South 230 265 3,100 -700 Descending Fort Worth Center
Fri 12:24:13 PM 32.6325 -97.0828 111° Southeast 188 216 3,000  Descending Fort Worth Center
Fri 12:24:28 PM 32.6333 -97.0667 86° East 167 192 3,100  Climbing Dallas / Fort Worth TRACON
Fri 12:25:28 PM 32.6833 -97.0500 16° North 173 199 3,000 -100 Descending Dallas / Fort Worth TRACON

Login

Don't have an account? Register now (free) for customized features, flight alerts, and more!